createdAt,value
2022-09-21T00:01:18.456Z,1.45
2022-09-21T00:04:16.623Z,1.475
2022-09-21T00:07:16.265Z,2.025
2022-09-21T00:11:19.350Z,2.4625
2022-09-21T00:14:17.129Z,2.625
2022-09-21T00:17:18.005Z,3.3125
2022-09-21T00:21:16.448Z,2.3125
2022-09-21T00:24:16.379Z,1.7500000000000002
2022-09-21T00:27:17.399Z,1.4125
2022-09-21T00:31:18.396Z,1.4
2022-09-21T00:34:16.830Z,1.85
2022-09-21T00:37:17.160Z,1.6
2022-09-21T00:41:15.952Z,1.6375
2022-09-21T00:44:28.342Z,2.5875
2022-09-21T00:47:23.007Z,1.65
2022-09-21T00:51:15.988Z,1.525
2022-09-21T00:54:22.481Z,1.7125
2022-09-21T00:57:18.851Z,1.2625
2022-09-21T01:01:17.416Z,1.375
2022-09-21T01:04:17.808Z,1.45
2022-09-21T01:07:21.967Z,1.25
2022-09-21T01:11:27.221Z,1.2125
2022-09-21T01:14:36.090Z,1.5375
2022-09-21T01:17:23.329Z,1.4875
2022-09-21T01:21:19.448Z,1.3375
2022-09-21T01:24:30.561Z,1.0625
2022-09-21T01:27:42.886Z,1.425
2022-09-21T01:31:21.368Z,1.4625
2022-09-21T01:34:24.827Z,0.9874999999999999
2022-09-21T01:37:23.825Z,1.35
2022-09-21T01:41:21.351Z,1.2375
2022-09-21T01:44:20.585Z,1.3125
2022-09-21T01:47:17.794Z,1.625
2022-09-21T01:51:21.657Z,1.1
2022-09-21T01:54:21.204Z,1.0125000000000002
2022-09-21T01:57:27.560Z,0.9125000000000001
2022-09-21T02:01:20.624Z,1.075
2022-09-21T02:04:16.945Z,1.125
2022-09-21T02:07:18.028Z,1.0625
2022-09-21T02:11:16.279Z,1.475
2022-09-21T02:14:20.810Z,1.3375
2022-09-21T02:17:29.777Z,1.1125
2022-09-21T02:21:24.710Z,1.2375
2022-09-21T02:24:32.678Z,1.9000000000000001
2022-09-21T02:27:27.833Z,1.1125
2022-09-21T02:31:25.191Z,0.7375
2022-09-21T02:34:23.793Z,1.125
2022-09-21T02:37:21.139Z,0.9500000000000001
2022-09-21T02:41:23.562Z,0.9375
2022-09-21T02:44:21.930Z,1.3125
2022-09-21T02:47:21.953Z,0.8875
2022-09-21T02:51:20.987Z,1.4000000000000001
2022-09-21T02:54:21.966Z,1.3625
2022-09-21T02:57:19.744Z,1.0875
2022-09-21T03:01:17.989Z,0.8875
2022-09-21T03:04:17.201Z,1.025
2022-09-21T03:07:18.565Z,0.7875000000000001
2022-09-21T03:11:16.260Z,1.1
2022-09-21T03:14:16.389Z,0.9750000000000001
2022-09-21T03:17:16.133Z,0.8375000000000001
2022-09-21T03:21:16.468Z,1.1124999999999998
2022-09-21T03:24:45.342Z,0.7625000000000001
2022-09-21T03:27:18.226Z,0.9874999999999999
2022-09-21T03:31:16.196Z,0.7250000000000001
2022-09-21T03:34:16.505Z,0.8
2022-09-21T03:37:16.889Z,0.8875000000000001
2022-09-21T03:41:18.697Z,0.9
2022-09-21T03:44:17.704Z,1.5125
2022-09-21T03:47:17.485Z,0.7124999999999999
2022-09-21T03:51:15.864Z,0.9875
2022-09-21T03:54:16.622Z,0.9875
2022-09-21T03:57:16.593Z,0.9375000000000001
2022-09-21T04:01:16.417Z,0.8375
2022-09-21T04:04:16.958Z,0.85
2022-09-21T04:07:16.446Z,0.9875
2022-09-21T04:11:17.840Z,1.0375
2022-09-21T04:14:16.404Z,1.375
2022-09-21T04:17:16.269Z,1.225
2022-09-21T04:21:17.322Z,0.9624999999999999
2022-09-21T04:24:17.156Z,1.1875
2022-09-21T04:27:16.888Z,0.6375
2022-09-21T04:31:16.917Z,1.025
2022-09-21T04:34:17.274Z,1.0374999999999999
2022-09-21T04:37:17.794Z,0.7125
2022-09-21T04:41:17.217Z,0.7875000000000001
2022-09-21T04:44:16.062Z,1.175
2022-09-21T04:47:16.230Z,0.9750000000000001
2022-09-21T04:51:16.824Z,1.0375
2022-09-21T04:54:17.268Z,0.875
2022-09-21T04:57:16.200Z,0.9125
2022-09-21T05:01:17.288Z,0.8
2022-09-21T05:04:16.860Z,0.9875
2022-09-21T05:07:16.892Z,0.625
2022-09-21T05:11:18.119Z,0.925
2022-09-21T05:14:16.021Z,0.775
2022-09-21T05:17:16.840Z,0.9
2022-09-21T05:21:16.329Z,0.625
2022-09-21T05:24:17.565Z,0.6625
2022-09-21T05:27:16.695Z,0.575
2022-09-21T05:31:31.041Z,0.8500000000000001
2022-09-21T05:34:36.159Z,0.7000000000000001
2022-09-21T05:37:34.680Z,0.875
2022-09-21T05:41:16.626Z,0.8500000000000001
2022-09-21T05:44:17.520Z,0.8625
2022-09-21T05:47:25.470Z,1.1375
2022-09-21T05:51:26.128Z,1.4375
2022-09-21T05:54:23.904Z,1.0750000000000002
2022-09-21T05:57:30.522Z,0.725
2022-09-21T06:01:36.426Z,0.825
2022-09-21T06:04:17.972Z,1.45
2022-09-21T06:07:16.690Z,0.7125
2022-09-21T06:11:16.811Z,0.725
2022-09-21T06:14:16.898Z,0.7250000000000001
2022-09-21T06:17:16.664Z,0.6875
2022-09-21T06:21:15.655Z,1.3125
2022-09-21T06:24:16.953Z,1.0499999999999998
2022-09-21T06:27:16.064Z,0.875
2022-09-21T06:31:15.330Z,0.75
2022-09-21T06:34:15.981Z,0.5375
2022-09-21T06:37:16.684Z,0.325
2022-09-21T06:41:20.876Z,0.9
2022-09-21T06:44:16.686Z,0.5125
2022-09-21T06:47:16.464Z,0.8500000000000001
2022-09-21T06:51:16.499Z,0.9125000000000001
2022-09-21T06:54:17.499Z,0.5375000000000001
2022-09-21T06:57:16.511Z,0.65
2022-09-21T07:01:17.115Z,1.25
2022-09-21T07:04:16.584Z,1.0625
2022-09-21T07:07:16.272Z,0.9125
2022-09-21T07:11:16.534Z,0.525
2022-09-21T07:14:16.304Z,0.925
2022-09-21T07:17:16.420Z,0.45
2022-09-21T07:21:16.775Z,0.625
2022-09-21T07:24:16.749Z,0.5375
2022-09-21T07:27:16.756Z,1.15
2022-09-21T07:31:16.567Z,0.475
2022-09-21T07:34:17.312Z,0.7
2022-09-21T07:37:16.741Z,0.47500000000000003
2022-09-21T07:41:16.132Z,1.0625
2022-09-21T07:44:16.212Z,0.5375
2022-09-21T07:47:15.916Z,0.41250000000000003
2022-09-21T07:51:15.963Z,0.55
2022-09-21T07:54:15.958Z,0.5875
2022-09-21T08:01:17.851Z,0.41250000000000003
2022-09-21T08:04:16.500Z,0.3125
2022-09-21T08:07:16.606Z,0.15000000000000002
2022-09-21T08:11:18.360Z,0.55
2022-09-21T08:14:23.820Z,0.2875
2022-09-21T08:17:16.574Z,0.46249999999999997
2022-09-21T08:21:18.362Z,0.5874999999999999
2022-09-21T08:24:18.438Z,0.4875
2022-09-21T08:27:19.920Z,0.2625
2022-09-21T08:31:17.794Z,0.325
2022-09-21T08:34:17.087Z,0.2875
2022-09-21T08:37:16.148Z,0.3875
2022-09-21T08:41:20.853Z,0.35
2022-09-21T08:44:45.846Z,0.4375
2022-09-21T08:47:21.802Z,0.475
2022-09-21T08:51:22.056Z,0.5875
2022-09-21T08:54:35.852Z,0.2375
2022-09-21T08:57:18.107Z,0.46249999999999997
2022-09-21T09:01:32.753Z,0.5
2022-09-21T09:04:39.319Z,0.3
2022-09-21T09:07:30.132Z,0.275
2022-09-21T09:11:31.485Z,0.2125
2022-09-21T09:14:37.602Z,0.4
2022-09-21T09:17:30.687Z,0.5375
2022-09-21T09:21:28.566Z,0.4375
2022-09-21T09:24:30.633Z,0.3125
2022-09-21T09:27:21.888Z,0.5375
2022-09-21T09:31:21.495Z,0.28750000000000003
2022-09-21T09:34:22.045Z,0.22500000000000003
2022-09-21T09:37:48.461Z,0.2875
2022-09-21T09:41:40.015Z,0.875
2022-09-21T09:44:34.028Z,0.55
2022-09-21T09:47:30.122Z,0.5625
2022-09-21T09:51:16.557Z,0.375
2022-09-21T09:54:20.541Z,0.4375
2022-09-21T09:57:23.942Z,0.5
2022-09-21T10:02:05.202Z,0.46249999999999997
2022-09-21T10:04:17.600Z,0.36250000000000004
2022-09-21T10:07:18.396Z,0.4
2022-09-21T10:11:16.480Z,0.9125000000000001
2022-09-21T10:14:20.883Z,0.4875
2022-09-21T10:17:17.744Z,0.49999999999999994
2022-09-21T10:21:21.133Z,0.35
2022-09-21T10:25:06.116Z,0.5874999999999999
2022-09-21T10:27:23.375Z,0.3375
2022-09-21T10:31:23.541Z,0.4125
2022-09-21T10:34:18.401Z,0.9125
2022-09-21T10:37:26.383Z,0.6125
2022-09-21T10:41:16.306Z,0.44999999999999996
2022-09-21T10:44:20.241Z,0.35
2022-09-21T10:47:21.151Z,0.325
2022-09-21T10:51:28.103Z,0.5
2022-09-21T10:54:23.485Z,0.75
2022-09-21T10:57:18.183Z,0.45
2022-09-21T11:01:22.350Z,0.5
2022-09-21T11:04:26.073Z,0.4875
2022-09-21T11:07:21.613Z,0.55
2022-09-21T11:11:34.530Z,0.375
2022-09-21T11:14:28.820Z,0.325
2022-09-21T11:17:21.661Z,0.2875
2022-09-21T11:21:58.382Z,0.4125
2022-09-21T11:24:26.379Z,0.5249999999999999
2022-09-21T11:27:24.513Z,0.6625
2022-09-21T11:31:40.050Z,0.6125
2022-09-21T11:34:32.732Z,0.3125
2022-09-21T11:37:33.288Z,0.7
2022-09-21T11:42:23.887Z,0.625
2022-09-21T11:44:32.858Z,0.2375
2022-09-21T11:47:40.276Z,0.275
2022-09-21T11:51:29.913Z,0.3375
2022-09-21T11:54:54.574Z,0.425
2022-09-21T11:57:24.166Z,0.6375
2022-09-21T12:01:42.440Z,0.5
2022-09-21T12:04:31.152Z,0.48750000000000004
2022-09-21T12:07:31.940Z,0.275
2022-09-21T12:11:28.148Z,0.2625
2022-09-21T12:14:26.923Z,0.5375000000000001
2022-09-21T12:17:24.045Z,0.45
2022-09-21T12:21:20.842Z,0.42500000000000004
2022-09-21T12:24:21.472Z,0.375
2022-09-21T12:27:24.959Z,0.47500000000000003
2022-09-21T12:31:22.644Z,0.5375
2022-09-21T12:34:20.692Z,0.25
2022-09-21T12:37:29.618Z,0.1875
2022-09-21T12:41:21.908Z,0.35
2022-09-21T12:44:25.114Z,0.36250000000000004
2022-09-21T12:47:21.468Z,0.325
2022-09-21T12:51:22.038Z,0.48750000000000004
2022-09-21T12:54:27.473Z,1.625
2022-09-21T12:57:45.717Z,0.575
2022-09-21T13:01:26.690Z,0.35000000000000003
2022-09-21T13:04:35.732Z,0.30000000000000004
2022-09-21T13:08:02.302Z,0.4625
2022-09-21T13:11:22.813Z,0.925
2022-09-21T13:14:17.977Z,0.33749999999999997
2022-09-21T13:17:21.483Z,0.21250000000000002
2022-09-21T13:21:19.047Z,0.3
2022-09-21T13:24:31.964Z,0.2875
2022-09-21T13:27:16.594Z,0.36250000000000004
2022-09-21T13:31:58.131Z,0.36250000000000004
2022-09-21T13:34:28.516Z,0.4625
2022-09-21T13:37:29.182Z,0.575
2022-09-21T13:41:35.731Z,0.33749999999999997
2022-09-21T13:44:39.376Z,0.4125
2022-09-21T13:47:28.579Z,0.425
2022-09-21T13:51:16.164Z,0.65
2022-09-21T13:54:17.143Z,0.6125
2022-09-21T13:57:20.305Z,0.35000000000000003
2022-09-21T14:01:46.272Z,0.375
2022-09-21T14:04:23.900Z,0.9375
2022-09-21T14:07:17.103Z,0.5125
2022-09-21T14:11:20.630Z,0.5875
2022-09-21T14:14:26.472Z,0.4375
2022-09-21T14:18:37.379Z,0.5375
2022-09-21T14:21:18.926Z,0.32499999999999996
2022-09-21T14:24:20.897Z,0.3875
2022-09-21T14:27:22.592Z,0.425
2022-09-21T14:31:21.374Z,0.5249999999999999
2022-09-21T14:34:23.369Z,0.2875
2022-09-21T14:37:27.392Z,0.575
2022-09-21T14:41:19.855Z,0.3625
2022-09-21T14:44:20.739Z,0.6749999999999999
2022-09-21T14:48:07.779Z,0.3
2022-09-21T14:51:24.462Z,0.5249999999999999
2022-09-21T14:54:33.091Z,0.7125
2022-09-21T14:57:32.019Z,0.6499999999999999
2022-09-21T15:01:26.463Z,0.625
2022-09-21T15:04:29.399Z,0.525
2022-09-21T15:11:27.467Z,0.425
2022-09-21T15:14:26.335Z,0.525
2022-09-21T15:17:23.339Z,0.7
2022-09-21T15:21:25.204Z,0.9375
2022-09-21T15:24:22.779Z,0.65
2022-09-21T15:27:19.356Z,0.4625
2022-09-21T15:31:17.104Z,0.7375
2022-09-21T15:34:17.619Z,1.0875
2022-09-21T15:37:17.492Z,0.825
2022-09-21T15:41:38.431Z,1.4749999999999999
2022-09-21T15:44:23.488Z,2.1375
2022-09-21T15:47:20.360Z,1.475
2022-09-21T15:51:24.001Z,1.6875
2022-09-21T15:54:27.049Z,1.475
2022-09-21T15:57:38.212Z,1.5625
2022-09-21T16:01:20.165Z,1.6375
2022-09-21T16:04:19.572Z,1.5625
2022-09-21T16:07:28.888Z,1.5
2022-09-21T16:11:19.407Z,1.225
2022-09-21T16:15:25.899Z,1.55
2022-09-21T16:17:22.319Z,1.0125
2022-09-21T16:21:21.246Z,1.3125
2022-09-21T16:24:20.200Z,1.3249999999999997
2022-09-21T16:27:17.890Z,0.9750000000000001
2022-09-21T16:31:29.824Z,1.0125000000000002
2022-09-21T16:34:21.412Z,1.5375
2022-09-21T16:37:24.508Z,1.2375
2022-09-21T16:41:16.350Z,1.1875
2022-09-21T16:44:22.899Z,1.4125
2022-09-21T16:47:20.126Z,1.25
2022-09-21T17:01:19.186Z,1.4375
2022-09-21T17:04:17.517Z,1.1375
2022-09-21T17:07:16.993Z,1.0375
2022-09-21T17:11:19.895Z,1.2374999999999998
2022-09-21T17:14:18.521Z,0.925
2022-09-21T17:17:19.508Z,1.1
2022-09-21T17:21:16.510Z,0.5625
2022-09-21T17:24:38.934Z,0.9500000000000001
2022-09-21T17:27:19.392Z,0.5875
2022-09-21T17:31:16.497Z,0.7875000000000001
2022-09-21T17:34:16.804Z,0.42500000000000004
2022-09-21T17:37:17.371Z,0.6375
2022-09-21T17:41:23.729Z,0.7124999999999999
2022-09-21T17:44:31.791Z,0.6625000000000001
2022-09-21T17:47:19.293Z,0.825
2022-09-21T17:53:34.303Z,0.7875
2022-09-21T17:54:18.957Z,0.36250000000000004
2022-09-21T17:57:33.049Z,0.7875000000000001
2022-09-21T18:01:28.445Z,0.4625
2022-09-21T18:04:17.173Z,0.6375
2022-09-21T18:07:18.726Z,0.4125
2022-09-21T18:11:37.511Z,0.7124999999999999
2022-09-21T18:14:28.489Z,0.5625
2022-09-21T18:17:32.340Z,0.6
2022-09-21T18:21:19.925Z,0.5375
2022-09-21T18:24:20.848Z,0.7250000000000001
2022-09-21T18:27:18.337Z,0.8
2022-09-21T18:31:34.363Z,0.7625000000000001
2022-09-21T18:34:42.243Z,0.8125000000000001
2022-09-21T18:37:24.576Z,0.8625
2022-09-21T18:41:26.858Z,0.4625
2022-09-21T18:44:28.758Z,0.6375
2022-09-21T18:47:25.769Z,0.625
2022-09-21T18:51:21.771Z,0.575
2022-09-21T18:54:19.832Z,0.4875
2022-09-21T18:57:16.597Z,0.9375
2022-09-21T19:01:17.941Z,0.5875
2022-09-21T19:04:18.468Z,0.5375
2022-09-21T19:07:26.858Z,0.55
2022-09-21T19:11:25.189Z,0.6749999999999999
2022-09-21T19:14:24.068Z,0.4375
2022-09-21T19:17:37.971Z,0.775
2022-09-21T19:21:28.311Z,0.6375
2022-09-21T19:24:23.536Z,0.5499999999999999
2022-09-21T19:27:27.264Z,0.75
2022-09-21T19:31:18.021Z,0.6375
2022-09-21T19:34:19.037Z,0.4125
2022-09-21T19:37:17.054Z,0.275
2022-09-21T19:41:31.557Z,0.7250000000000001
2022-09-21T19:44:33.466Z,0.85
2022-09-21T19:47:26.703Z,0.5375
2022-09-21T19:51:18.280Z,0.6499999999999999
2022-09-21T20:01:20.324Z,0.6499999999999999
2022-09-21T20:04:31.502Z,0.4625
2022-09-21T20:07:28.862Z,0.6
2022-09-21T20:11:23.676Z,0.7999999999999999
2022-09-21T20:14:27.301Z,0.6375
2022-09-21T20:17:22.497Z,0.375
2022-09-21T20:21:21.080Z,0.3125
2022-09-21T20:24:25.330Z,0.30000000000000004
2022-09-21T20:27:26.847Z,0.325
2022-09-21T20:31:16.519Z,0.4625
2022-09-21T20:34:16.930Z,0.475
2022-09-21T20:37:17.411Z,0.4125
2022-09-21T20:41:21.595Z,0.8999999999999999
2022-09-21T20:44:16.290Z,0.41250000000000003
2022-09-21T20:47:16.792Z,0.475
2022-09-21T20:51:16.209Z,0.3
2022-09-21T20:54:18.105Z,0.8500000000000001
2022-09-21T20:57:16.711Z,0.35
2022-09-21T21:01:16.347Z,0.48750000000000004
2022-09-21T21:04:17.195Z,0.5125
2022-09-21T21:07:16.929Z,0.42500000000000004
2022-09-21T21:11:16.470Z,0.5625
2022-09-21T21:14:16.800Z,0.5625
2022-09-21T21:17:16.686Z,0.35
2022-09-21T21:21:15.874Z,0.575
2022-09-21T21:24:48.515Z,0.41250000000000003
2022-09-21T21:27:18.333Z,0.2375
2022-09-21T21:31:21.280Z,0.41250000000000003
2022-09-21T21:34:17.279Z,0.4375
2022-09-21T21:37:18.523Z,0.3125
2022-09-21T21:41:16.136Z,0.55
2022-09-21T21:44:17.259Z,0.4875
2022-09-21T21:47:35.131Z,0.42500000000000004
2022-09-21T21:51:16.707Z,0.7125
2022-09-21T21:54:21.292Z,0.15000000000000002
2022-09-21T21:57:17.122Z,0.28750000000000003
2022-09-21T22:01:20.915Z,0.35
2022-09-21T22:04:16.706Z,0.625
2022-09-21T22:07:16.629Z,0.6499999999999999
2022-09-21T22:11:18.289Z,0.8500000000000001
2022-09-21T22:14:17.118Z,0.5375
2022-09-21T22:17:16.815Z,0.27499999999999997
2022-09-21T22:21:18.461Z,0.2625
2022-09-21T22:24:17.876Z,0.4125
2022-09-21T22:27:16.672Z,0.7625000000000001
2022-09-21T22:31:19.491Z,0.625
2022-09-21T22:34:18.072Z,0.9625
2022-09-21T22:37:17.519Z,0.28750000000000003
2022-09-21T22:41:19.455Z,0.8624999999999999
2022-09-21T22:44:17.332Z,0.45
2022-09-21T22:47:17.016Z,0.6375
2022-09-21T22:51:18.538Z,0.425
2022-09-21T22:54:17.711Z,0.42500000000000004
2022-09-21T22:57:16.699Z,0.4125
2022-09-21T23:01:19.923Z,0.5125
2022-09-21T23:04:17.282Z,0.5625
2022-09-21T23:07:17.082Z,0.3125
2022-09-21T23:11:18.909Z,0.475
2022-09-21T23:14:16.733Z,0.625
2022-09-21T23:17:16.506Z,0.4875
2022-09-21T23:21:19.239Z,0.525
2022-09-21T23:24:17.681Z,0.4625
2022-09-21T23:27:16.761Z,0.47500000000000003
2022-09-21T23:31:16.959Z,0.23750000000000002
2022-09-21T23:34:17.462Z,0.44999999999999996
2022-09-21T23:37:18.183Z,0.30000000000000004
2022-09-21T23:41:17.926Z,0.5
2022-09-21T23:44:16.258Z,0.3625
2022-09-21T23:47:16.199Z,0.8
2022-09-21T23:51:16.448Z,0.6125
2022-09-21T23:54:16.251Z,0.5125
2022-09-21T23:57:16.055Z,0.41250000000000003
